All
Mackay Base Hospital Airport (West Mackay, QLD) YMHP Weather
There is no TAF data available at YMHP. Showing TAF data for YBMK (2 mi SE).
MKY Terminal Area Forecast (no data for YMHP)
| Date | Time (AEST) | Flight Rules | Wind Dir. | Speed | Type | Height AGL (ft) | Visibility | Remarks | ||||||
|---|---|---|---|---|---|---|---|---|---|---|---|---|---|---|
| 10-May | 03:00AM | VFR | 130° | 10 kt | Scattered | 2,000 | >= 6 miles | |||||||
| 10-May | 02:00AM | VFR | 130° | 10 kt | Scattered | 2,000 | >= 6 miles | |||||||
| 10-May | 01:00AM | VFR | 130° | 10 kt | Scattered | 2,000 | >= 6 miles | |||||||
| 10-May | 12:00AM | VFR | 130° | 10 kt | Scattered | 2,000 | >= 6 miles | |||||||
| 09-May | 11:00PM | VFR | 130° | 10 kt | Scattered | 2,000 | >= 6 miles | |||||||
| 09-May | 10:00PM | VFR | 130° | 10 kt | Scattered | 2,000 | >= 6 miles | |||||||
| 09-May | 09:00PM | VFR | 130° | 10 kt | Scattered | 2,000 | >= 6 miles | |||||||
| 09-May | 08:00PM | VFR | 130° | 10 kt | Scattered | 2,000 | >= 6 miles | |||||||
| 09-May | 07:00PM | VFR | 130° | 10 kt | Scattered | 2,000 | >= 6 miles | |||||||
| 09-May | 06:00PM | VFR | 130° | 10 kt | Scattered | 2,000 | >= 6 miles | |||||||
| 09-May | 05:00PM | VFR | 130° | 16 kt | Scattered | 2,500 | >= 6 miles | |||||||
| 09-May | 04:00PM | VFR | 130° | 16 kt | Scattered | 2,500 | >= 6 miles | |||||||
There is no METAR data available at YMHP. Showing METAR data for YBMK (2 mi SE).
Recent MKY METAR history (no data for YMHP)
| Date | Time (AEST) | Flight Rules | Wind Dir. | Speed | Type | Height AGL (ft) | Visibility | Temp (°C) | Temp (°F) | Dew Point (°C) | Dew Point (°F) | Rel. Humid. | Pressure | Density Altitude | Remarks |
|---|---|---|---|---|---|---|---|---|---|---|---|---|---|---|---|
| 09-May | 04:00PM | VFR | 130° | 14 kt | 10000 meters | 23° | 73° | 14° | 57° | 57% | 1018 mb | 837 ft | |||
| 09-May | 03:00PM | VFR | 130° | 14 kt | 10000 meters | 24° | 75° | 14° | 57° | 54% | 1018 mb | 957 ft | |||
| 09-May | 02:00PM | VFR | 130° | 16 kt | 10000 meters | 24° | 75° | 13° | 55° | 50% | 1018 mb | 957 ft | |||
| 09-May | 01:00PM | VFR | 140° | 16 kt | 10000 meters | 25° | 77° | 13° | 55° | 47% | 1018 mb | 1,077 ft | |||
| 09-May | 12:00PM | VFR | 140° | 17 kt | 10000 meters | 25° | 77° | 12° | 53° | 44% | 1019 mb | 1,048 ft | |||
| 09-May | 11:00AM | VFR | 150° | 14 kt | 10000 meters | 23° | 73° | 8° | 46° | 38% | 1020 mb | 778 ft | |||
| 09-May | 10:00AM | VFR | 170° | 12 kt | 10000 meters | 23° | 73° | 7° | 44° | 36% | 1020 mb | 778 ft | |||
| 09-May | 09:00AM | VFR | 190° | 8 kt | 10000 meters | 21° | 69° | 6° | 42° | 38% | 1020 mb | 538 ft | |||
| 09-May | 08:00AM | VFR | 220° | 5 kt | 10000 meters | 17° | 62° | 6° | 42° | 48% | 1020 mb | 58 ft | |||
| 09-May | 07:00AM | VFR | 250° | 5 kt | 10000 meters | 12° | 53° | 8° | 46° | 76% | 1019 mb | -512 ft | |||
| 09-May | 06:00AM | VFR | 260° | 6 kt | 10000 meters | 10° | 50° | 6° | 42° | 76% | 1019 mb | -752 ft | |||
| 09-May | 05:00AM | VFR | 250° | 5 kt | 10000 meters | 11° | 51° | 7° | 44° | 76% | 1018 mb | -603 ft | |||
| 09-May | 04:00AM | VFR | 210° | 5 kt | 10000 meters | 12° | 53° | 6° | 42° | 67% | 1018 mb | -483 ft | |||
| 09-May | 03:00AM | VFR | 200° | 7 kt | 10000 meters | 12° | 53° | 6° | 42° | 67% | 1018 mb | -483 ft | |||
| 09-May | 02:00AM | VFR | 180° | 5 kt | 10000 meters | 14° | 57° | 5° | 41° | 55% | 1018 mb | -243 ft | |||
| 09-May | 01:00AM | VFR | 160° | 9 kt | 10000 meters | 17° | 62° | 3° | 37° | 39% | 1018 mb | 117 ft | |||
| 09-May | 12:00AM | VFR | 160° | 8 kt | 10000 meters | 17° | 62° | 4° | 39° | 42% | 1019 mb | 88 ft | |||
| 08-May | 11:00PM | VFR | 170° | 7 kt | 10000 meters | 17° | 62° | 7° | 44° | 52% | 1019 mb | 88 ft | |||
| 08-May | 10:00PM | VFR | 180° | 7 kt | 10000 meters | 17° | 62° | 9° | 48° | 59% | 1019 mb | 88 ft | |||
| 08-May | 09:00PM | VFR | 190° | 6 kt | 10000 meters | 17° | 62° | 10° | 50° | 63% | 1019 mb | 88 ft | |||
| 08-May | 08:00PM | VFR | 200° | 7 kt | 10000 meters | 17° | 62° | 12° | 53° | 72% | 1018 mb | 117 ft | |||
| 08-May | 07:00PM | VFR | 150° | 9 kt | 10000 meters | 21° | 69° | 11° | 51° | 53% | 1018 mb | 597 ft | |||
| 08-May | 06:00PM | VFR | 140° | 15 kt | 10000 meters | 22° | 71° | 11° | 51° | 50% | 1017 mb | 747 ft | |||
| 08-May | 05:00PM | VFR | 130° | 17 kt | 10000 meters | 23° | 73° | 11° | 51° | 47% | 1016 mb | 897 ft |
Login
| Your browser is unsupported. upgrade your browser |
